Time;durP1;ratioP1;P1;durP2;ratioP2;P2;SDS_P1;SDS_P2;PMS_P1;PMS_P2;Temp;Humidity;BMP_temperature;BMP_pressure;BME280_temperature;BME280_humidity;BME280_pressure;Samples;Min_cycle;Max_cycle;Signal;HPM_P1;HPM_P2
2022/12/19 00:01:50;;;;;;;;;;;;;;;-0.17;66.71;97076.38;6297050;28;19942;-67
2022/12/19 00:04:51;;;;;;;;;;;;;;;-0.43;66.49;97063.06;6295281;28;20297;-67
2022/12/19 00:07:56;;;;;;;;;;;;;;;-0.52;67.28;97054.59;6296796;28;19920;-68
2022/12/19 00:11:00;;;;;;;;;;;;;;;-0.61;66.87;97054.75;6296732;28;19920;-68
2022/12/19 00:14:02;;;;;;;;;;;;;;;-0.87;67.24;97036.28;6296277;28;20027;-68
2022/12/19 00:17:03;;;;;;;;;;;;;;;-0.91;66.67;97020.84;6294575;28;19920;-68
2022/12/19 00:20:05;;;;;;;;;;;;;;;-1.05;67.42;97022.78;6295948;28;19920;-68
2022/12/19 00:23:06;;;;;;;;;;;;;;;-1.31;68.11;97030.09;6294596;28;20322;-68
2022/12/19 00:26:14;;;;;;;;;;;;;;;-1.21;68.18;97016.19;6295891;28;20323;-69
2022/12/19 00:29:17;;;;;;;;;;;;;;;-1.61;69.38;97012.47;6295910;28;20019;-68
2022/12/19 00:32:18;;;;;;;;;;;;;;;-1.44;69.71;97003.63;6295939;28;19920;-68
2022/12/19 00:35:22;;;;;;;;;;;;;;;-1.25;69.54;96999.88;6296340;28;20035;-67
2022/12/19 00:38:23;;;;;;;;;;;;;;;-0.70;70.20;96993.75;6295806;28;19920;-67
2022/12/19 00:41:26;;;;;;;;;;;;;;;-0.57;70.84;97002.13;6295034;28;19920;-67
2022/12/19 00:44:27;;;;;;;;;;;;;;;-0.23;71.33;96991.13;6295285;28;19920;-67
2022/12/19 00:47:28;;;;;;;;;;;;;;;-0.20;70.74;96991.06;6295752;28;19927;-67
2022/12/19 00:50:31;;;;;;;;;;;;;;;-0.25;70.24;96996.34;6296078;28;19916;-67
2022/12/19 00:53:33;;;;;;;;;;;;;;;-0.31;70.42;96991.31;6295482;28;19920;-67
2022/12/19 00:56:36;;;;;;;;;;;;;;;-0.29;69.88;97014.53;6296172;28;19921;-68
2022/12/19 00:59:37;;;;;;;;;;;;;;;-0.41;69.84;97004.44;6294659;28;19920;-68
2022/12/19 01:02:41;;;;;;;;;;;;;;;-0.44;69.45;97009.66;6293947;28;19927;-68
2022/12/19 01:05:44;;;;;;;;;;;;;;;-0.65;69.55;97008.31;6295367;28;19920;-67
2022/12/19 01:08:50;;;;;;;;;;;;;;;-0.77;70.36;96983.56;6295964;28;19920;-68
2022/12/19 01:15:19;;;;;;;;;;;;;;;-0.82;70.35;96977.63;6295861;28;19920;-68
2022/12/19 01:18:22;;;;;;;;;;;;;;;-0.89;70.64;96982.06;6295252;28;19920;-68
2022/12/19 01:21:23;;;;;;;;;;;;;;;-0.91;70.26;96981.22;6295261;28;19921;-68
2022/12/19 01:24:26;;;;;;;;;;;;;;;-0.96;71.17;96976.16;6295808;28;19920;-68
2022/12/19 01:27:30;;;;;;;;;;;;;;;-0.86;70.74;96973.41;6295344;28;19932;-67
2022/12/19 01:30:33;;;;;;;;;;;;;;;-0.93;71.95;96978.69;6295696;28;19920;-68
2022/12/19 01:33:40;;;;;;;;;;;;;;;-0.66;71.83;96984.22;6295550;28;19920;-68
2022/12/19 01:36:41;;;;;;;;;;;;;;;-0.77;71.91;96983.56;6295561;28;20297;-69
2022/12/19 01:39:42;;;;;;;;;;;;;;;-0.76;72.25;96959.44;6299596;28;19924;-69
2022/12/19 01:42:43;;;;;;;;;;;;;;;-0.60;71.88;96958.25;6300043;28;19920;-68
2022/12/19 01:45:46;;;;;;;;;;;;;;;-0.83;72.99;96958.69;6299268;28;20081;-68
2022/12/19 01:48:51;;;;;;;;;;;;;;;-0.84;73.87;96958.72;6300168;28;20377;-68
2022/12/19 01:51:55;;;;;;;;;;;;;;;-0.69;73.84;96945.50;6299564;28;19920;-68
2022/12/19 01:54:57;;;;;;;;;;;;;;;-0.53;73.10;96943.50;6299460;28;20013;-68
2022/12/19 01:58:02;;;;;;;;;;;;;;;-0.60;73.23;96950.50;6299982;28;19920;-68
2022/12/19 02:01:04;;;;;;;;;;;;;;;-0.56;73.22;96946.97;6299243;28;19920;-69
2022/12/19 02:04:05;;;;;;;;;;;;;;;-0.46;71.73;96940.72;6298679;28;20465;-68
2022/12/19 02:07:13;;;;;;;;;;;;;;;-0.56;72.57;96936.66;6299532;28;20378;-68
2022/12/19 02:10:16;;;;;;;;;;;;;;;-0.75;72.18;96912.88;6298796;28;19920;-69
2022/12/19 02:13:17;;;;;;;;;;;;;;;-0.77;72.63;96917.22;6298993;28;19982;-68
2022/12/19 02:16:24;;;;;;;;;;;;;;;-0.83;72.99;96934.59;6299360;28;19920;-68
2022/12/19 02:19:43;;;;;;;;;;;;;;;-0.99;73.30;96937.47;6298897;28;20433;-68
2022/12/19 02:22:47;;;;;;;;;;;;;;;-0.83;73.08;96919.94;6298666;28;19927;-68
2022/12/19 02:26:02;;;;;;;;;;;;;;;-0.80;71.98;96919.03;6299178;28;19921;-68
2022/12/19 02:29:29;;;;;;;;;;;;;;;-1.02;71.96;96927.19;6299117;28;19926;-69
2022/12/19 02:32:41;;;;;;;;;;;;;;;-1.28;72.64;96913.88;6290061;28;19943;-69
2022/12/19 02:35:56;;;;;;;;;;;;;;;-1.15;72.58;96902.47;6298934;28;19920;-69
2022/12/19 02:39:03;;;;;;;;;;;;;;;-1.37;72.74;96913.16;6298802;28;19920;-69
2022/12/19 02:42:06;;;;;;;;;;;;;;;-1.52;73.67;96887.63;6297179;28;19920;-69
2022/12/19 02:45:14;;;;;;;;;;;;;;;-1.33;74.09;96887.28;6297637;28;19920;-68
2022/12/19 02:48:18;;;;;;;;;;;;;;;-1.50;73.61;96883.28;6298268;28;19928;-68
2022/12/19 02:51:22;;;;;;;;;;;;;;;-1.03;75.07;96876.41;6298302;28;19916;-69
2022/12/19 02:54:23;;;;;;;;;;;;;;;-0.49;75.17;96885.66;6298064;28;20497;-68
2022/12/19 02:57:30;;;;;;;;;;;;;;;-0.18;75.03;96877.25;6298705;28;20410;-69
2022/12/19 03:00:36;;;;;;;;;;;;;;;0.04;74.65;96877.63;6298258;28;19997;-68
2022/12/19 03:03:38;;;;;;;;;;;;;;;0.22;74.21;96882.34;6297718;28;20309;-69
2022/12/19 03:07:01;;;;;;;;;;;;;;;0.41;74.02;96873.25;6298100;28;19920;-69
2022/12/19 03:10:24;;;;;;;;;;;;;;;0.48;73.04;96873.94;6298396;28;20425;-68
2022/12/19 03:13:31;;;;;;;;;;;;;;;0.41;73.42;96878.44;6298037;28;19923;-68
2022/12/19 03:16:37;;;;;;;;;;;;;;;0.35;73.87;96875.16;6297140;28;19927;-68
2022/12/19 03:19:40;;;;;;;;;;;;;;;0.58;73.55;96869.41;6297377;28;19920;-68
2022/12/19 03:22:43;;;;;;;;;;;;;;;0.55;73.76;96869.47;6295784;28;20009;-68
2022/12/19 03:25:47;;;;;;;;;;;;;;;0.48;73.30;96878.28;6297325;28;19916;-68
2022/12/19 03:28:50;;;;;;;;;;;;;;;0.59;73.22;96881.44;6297683;28;20457;-68
2022/12/19 03:31:52;;;;;;;;;;;;;;;0.57;73.52;96878.06;6297176;28;19965;-68
2022/12/19 03:35:05;;;;;;;;;;;;;;;0.54;73.16;96872.94;6296756;28;19931;-68
2022/12/19 03:38:08;;;;;;;;;;;;;;;0.66;73.61;96875.25;6296908;28;19920;-67
2022/12/19 03:41:12;;;;;;;;;;;;;;;0.47;73.28;96872.25;6295483;28;20424;-69
2022/12/19 03:44:14;;;;;;;;;;;;;;;0.56;73.08;96876.34;6296625;28;19931;-68
2022/12/19 03:47:15;;;;;;;;;;;;;;;0.46;73.33;96864.53;6296854;28;20289;-68
2022/12/19 03:50:17;;;;;;;;;;;;;;;0.44;73.46;96869.75;6296653;28;19920;-68
2022/12/19 03:53:26;;;;;;;;;;;;;;;0.50;74.11;96867.00;6295693;28;19920;-68
2022/12/19 03:56:48;;;;;;;;;;;;;;;0.65;73.61;96857.97;6296947;28;19924;-69
2022/12/19 03:59:56;;;;;;;;;;;;;;;0.47;74.65;96869.66;6295929;28;20305;-69
2022/12/19 04:02:58;;;;;;;;;;;;;;;0.51;74.54;96873.91;6295851;28;20398;-68
2022/12/19 04:06:04;;;;;;;;;;;;;;;0.58;74.29;96853.88;6296608;28;20297;-68
2022/12/19 04:09:06;;;;;;;;;;;;;;;0.63;73.94;96857.19;6296298;28;19943;-68
2022/12/19 04:12:13;;;;;;;;;;;;;;;0.69;74.02;96846.66;6296034;28;19942;-68
2022/12/19 04:15:14;;;;;;;;;;;;;;;0.75;73.45;96836.16;6296022;28;20275;-69
2022/12/19 04:18:18;;;;;;;;;;;;;;;0.83;73.70;96844.56;6295789;28;19926;-69
2022/12/19 04:21:29;;;;;;;;;;;;;;;0.78;74.24;96825.69;6296308;28;19920;-69
2022/12/19 04:24:33;;;;;;;;;;;;;;;0.83;73.79;96829.03;6295729;28;19959;-68
2022/12/19 04:27:40;;;;;;;;;;;;;;;0.97;73.86;96856.31;6296213;28;19965;-68
2022/12/19 04:30:43;;;;;;;;;;;;;;;0.95;73.86;96832.19;6296254;28;19920;-68
2022/12/19 04:33:49;;;;;;;;;;;;;;;0.92;73.84;96806.34;6296276;28;19982;-68
2022/12/19 04:36:50;;;;;;;;;;;;;;;0.92;73.35;96796.00;6295620;28;20316;-68
2022/12/19 04:39:52;;;;;;;;;;;;;;;0.97;74.02;96804.50;6295881;28;20347;-68
2022/12/19 04:42:53;;;;;;;;;;;;;;;0.95;73.90;96821.81;6293990;28;19921;-68
2022/12/19 04:45:57;;;;;;;;;;;;;;;1.08;74.03;96823.19;6294876;28;19920;-68
2022/12/19 04:49:01;;;;;;;;;;;;;;;0.99;73.59;96826.00;6295957;28;20026;-68
2022/12/19 04:52:04;;;;;;;;;;;;;;;1.08;74.11;96818.00;6295815;28;20352;-68
2022/12/19 04:55:05;;;;;;;;;;;;;;;1.18;73.84;96840.16;6294725;28;19927;-68
2022/12/19 04:58:08;;;;;;;;;;;;;;;1.10;73.39;96836.91;6294759;28;19920;-68
2022/12/19 05:01:13;;;;;;;;;;;;;;;1.00;73.37;96838.94;6295315;28;19920;-68
2022/12/19 05:04:16;;;;;;;;;;;;;;;1.06;72.45;96840.50;6295356;28;19920;-68
2022/12/19 05:07:18;;;;;;;;;;;;;;;1.07;72.64;96826.63;6295470;28;19939;-68
2022/12/19 05:10:22;;;;;;;;;;;;;;;1.06;73.30;96824.94;6295674;28;19920;-68
2022/12/19 05:13:23;;;;;;;;;;;;;;;1.19;72.56;96831.50;6299478;28;19920;-69
2022/12/19 05:16:24;;;;;;;;;;;;;;;1.21;72.66;96834.03;6300523;28;19927;-69
2022/12/19 05:19:25;;;;;;;;;;;;;;;1.22;72.79;96826.22;6300397;28;19993;-68
2022/12/19 05:22:28;;;;;;;;;;;;;;;1.33;72.95;96819.00;6300474;28;19920;-68
2022/12/19 05:25:34;;;;;;;;;;;;;;;1.49;72.65;96828.91;6300567;28;19927;-68
2022/12/19 05:28:37;;;;;;;;;;;;;;;1.32;73.09;96826.78;6300507;28;19920;-69
2022/12/19 05:31:41;;;;;;;;;;;;;;;1.33;73.23;96823.31;6300287;28;19920;-69
2022/12/19 05:34:44;;;;;;;;;;;;;;;1.24;73.30;96808.88;6300389;28;19920;-69
2022/12/19 05:37:50;;;;;;;;;;;;;;;1.42;72.61;96817.03;6300342;28;19920;-69
2022/12/19 05:40:51;;;;;;;;;;;;;;;1.24;73.21;96803.69;6300097;28;19920;-68
2022/12/19 05:43:56;;;;;;;;;;;;;;;1.34;73.23;96804.28;6299966;28;19920;-68
2022/12/19 05:46:59;;;;;;;;;;;;;;;1.41;73.03;96794.56;6299854;28;20305;-68
2022/12/19 05:50:00;;;;;;;;;;;;;;;1.50;72.62;96799.47;6299104;28;19920;-69
2022/12/19 05:53:08;;;;;;;;;;;;;;;1.44;72.62;96804.84;6299495;28;19921;-69
2022/12/19 05:56:14;;;;;;;;;;;;;;;1.26;72.80;96793.28;6297520;28;19927;-68
2022/12/19 05:59:42;;;;;;;;;;;;;;;1.33;72.70;96787.88;6299335;28;19920;-69
2022/12/19 06:02:45;;;;;;;;;;;;;;;1.35;71.84;96780.88;6299568;28;19920;-69
2022/12/19 06:05:46;;;;;;;;;;;;;;;1.49;71.29;96777.88;6298905;28;19927;-68
2022/12/19 06:08:50;;;;;;;;;;;;;;;1.41;71.17;96799.75;6299785;28;20015;-69
2022/12/19 06:11:52;;;;;;;;;;;;;;;1.52;70.79;96771.75;6298514;28;19923;-68
2022/12/19 06:14:53;;;;;;;;;;;;;;;1.34;71.06;96762.81;6298763;28;20382;-68
2022/12/19 06:18:03;;;;;;;;;;;;;;;1.32;70.69;96780.97;6299326;28;19926;-68
2022/12/19 06:21:23;;;;;;;;;;;;;;;1.34;69.79;96774.00;6298934;28;19920;-68
2022/12/19 06:24:24;;;;;;;;;;;;;;;1.25;70.58;96763.94;6298204;28;19920;-69
2022/12/19 06:27:30;;;;;;;;;;;;;;;1.34;70.40;96753.28;6298935;28;19920;-69
2022/12/19 06:30:37;;;;;;;;;;;;;;;1.30;69.94;96767.25;6299195;28;19920;-69
2022/12/19 06:33:38;;;;;;;;;;;;;;;1.29;70.62;96757.75;6299040;28;19932;-69
2022/12/19 06:36:43;;;;;;;;;;;;;;;1.40;71.38;96751.41;6298685;28;19924;-68
2022/12/19 06:39:49;;;;;;;;;;;;;;;1.51;70.95;96764.88;6298333;28;19927;-69
2022/12/19 06:42:55;;;;;;;;;;;;;;;1.57;71.18;96759.50;6298827;28;19927;-69
2022/12/19 06:45:59;;;;;;;;;;;;;;;1.60;70.62;96743.00;6298988;28;20386;-68
2022/12/19 06:49:03;;;;;;;;;;;;;;;1.73;70.88;96747.75;6298455;28;20011;-68
2022/12/19 06:52:09;;;;;;;;;;;;;;;1.80;70.19;96731.09;6298368;28;19920;-70
2022/12/19 06:55:10;;;;;;;;;;;;;;;1.76;70.54;96739.88;6297869;28;19964;-69
2022/12/19 06:58:15;;;;;;;;;;;;;;;1.83;70.56;96737.06;6298140;28;19921;-69
2022/12/19 07:01:16;;;;;;;;;;;;;;;1.72;70.65;96740.84;6296652;28;19920;-68
2022/12/19 07:04:22;;;;;;;;;;;;;;;1.91;70.27;96729.91;6298266;28;19920;-68
2022/12/19 07:07:23;;;;;;;;;;;;;;;1.90;70.24;96726.47;6298311;28;20064;-69
2022/12/19 07:10:25;;;;;;;;;;;;;;;1.79;70.29;96723.38;6298036;28;19920;-68
2022/12/19 07:13:29;;;;;;;;;;;;;;;1.70;70.12;96714.13;6297710;28;19982;-68
2022/12/19 07:16:30;;;;;;;;;;;;;;;1.67;70.96;96729.81;6297890;28;20054;-69
2022/12/19 07:19:34;;;;;;;;;;;;;;;1.63;70.72;96723.00;6297327;28;19970;-69
2022/12/19 07:22:35;;;;;;;;;;;;;;;1.84;69.94;96705.91;6296222;28;20408;-70
2022/12/19 07:25:38;;;;;;;;;;;;;;;1.72;70.61;96696.75;6297518;28;19967;-69
2022/12/19 07:28:43;;;;;;;;;;;;;;;1.80;70.67;96705.13;6297681;28;20393;-68
2022/12/19 07:31:47;;;;;;;;;;;;;;;1.92;70.74;96711.66;6297638;28;19943;-68
2022/12/19 07:34:48;;;;;;;;;;;;;;;2.03;71.10;96687.97;6296744;28;19916;-68
2022/12/19 07:37:52;;;;;;;;;;;;;;;2.29;70.55;96696.59;6297406;28;20408;-69
2022/12/19 07:40:59;;;;;;;;;;;;;;;2.37;70.44;96694.59;6297401;28;19920;-68
2022/12/19 07:44:00;;;;;;;;;;;;;;;2.38;70.38;96680.72;6297251;28;20304;-69
2022/12/19 07:47:12;;;;;;;;;;;;;;;2.24;71.09;96682.03;6297011;28;19920;-69
2022/12/19 07:50:39;;;;;;;;;;;;;;;2.39;71.14;96695.38;6297059;28;19955;-69
2022/12/19 07:53:43;;;;;;;;;;;;;;;2.47;70.19;96695.97;6296617;28;20383;-70
2022/12/19 07:56:45;;;;;;;;;;;;;;;2.45;69.76;96705.56;6296204;28;20023;-68
2022/12/19 07:59:46;;;;;;;;;;;;;;;2.47;69.71;96695.97;6296662;28;19926;-68
2022/12/19 08:02:48;;;;;;;;;;;;;;;2.57;68.96;96692.13;6296765;28;19942;-69
2022/12/19 08:05:49;;;;;;;;;;;;;;;2.39;69.03;96695.38;6296548;28;19970;-69
2022/12/19 08:08:52;;;;;;;;;;;;;;;2.36;69.07;96683.34;6295487;28;19924;-69
2022/12/19 08:11:57;;;;;;;;;;;;;;;2.33;69.42;96687.81;6296481;28;19916;-68
2022/12/19 08:15:04;;;;;;;;;;;;;;;2.41;69.04;96685.81;6296542;28;19920;-68
2022/12/19 08:18:05;;;;;;;;;;;;;;;2.30;68.25;96677.53;6296534;28;19920;-69
2022/12/19 08:21:11;;;;;;;;;;;;;;;2.09;69.50;96661.78;6296217;28;19920;-69
2022/12/19 08:24:16;;;;;;;;;;;;;;;2.27;69.30;96651.69;6296306;28;19928;-71
2022/12/19 08:27:17;;;;;;;;;;;;;;;2.22;69.45;96649.25;6296274;28;19931;-69
2022/12/19 08:30:18;;;;;;;;;;;;;;;2.24;69.13;96642.25;6295930;28;19921;-68
2022/12/19 08:33:20;;;;;;;;;;;;;;;2.06;69.14;96622.97;6295004;28;19927;-68
2022/12/19 08:36:24;;;;;;;;;;;;;;;2.14;70.03;96615.75;6296424;28;19921;-69
2022/12/19 08:39:25;;;;;;;;;;;;;;;2.19;70.37;96608.66;6295698;28;19928;-69
2022/12/19 08:42:28;;;;;;;;;;;;;;;2.23;70.72;96615.44;6296114;28;19920;-68
2022/12/19 08:45:34;;;;;;;;;;;;;;;2.32;70.08;96603.88;6295952;28;19982;-70
2022/12/19 08:48:40;;;;;;;;;;;;;;;2.39;69.95;96617.47;6294463;28;19924;-68
2022/12/19 08:51:43;;;;;;;;;;;;;;;2.36;69.93;96613.25;6296024;28;19920;-68
2022/12/19 08:54:44;;;;;;;;;;;;;;;2.28;70.33;96609.25;6295536;28;20389;-69
2022/12/19 08:57:45;;;;;;;;;;;;;;;2.70;69.91;96602.44;6295194;28;20089;-69
2022/12/19 09:00:46;;;;;;;;;;;;;;;2.79;70.15;96595.22;6295725;28;19971;-70
2022/12/19 09:03:50;;;;;;;;;;;;;;;3.01;69.71;96583.06;6293772;28;19928;-69
2022/12/19 09:06:51;;;;;;;;;;;;;;;3.35;68.44;96586.94;6295197;28;20337;-69
2022/12/19 09:09:58;;;;;;;;;;;;;;;3.66;67.48;96596.06;6295707;28;19926;-69
2022/12/19 09:12:59;;;;;;;;;;;;;;;3.69;66.87;96604.59;6295105;28;19931;-69
2022/12/19 09:16:03;;;;;;;;;;;;;;;3.88;66.47;96581.25;6295477;28;19924;-69
2022/12/19 09:19:06;;;;;;;;;;;;;;;4.15;65.41;96588.75;6295773;28;19916;-69
2022/12/19 09:22:12;;;;;;;;;;;;;;;4.30;64.45;96582.00;6294604;28;19920;-70
2022/12/19 09:25:15;;;;;;;;;;;;;;;4.30;64.38;96593.28;6295680;28;19920;-70
2022/12/19 09:28:16;;;;;;;;;;;;;;;4.30;64.40;96567.22;6295232;28;19924;-68
2022/12/19 09:31:19;;;;;;;;;;;;;;;4.33;63.87;96556.69;6294785;28;20014;-68
2022/12/19 09:34:23;;;;;;;;;;;;;;;4.28;63.87;96549.06;6295497;28;19938;-68
2022/12/19 09:37:25;;;;;;;;;;;;;;;4.31;63.69;96550.69;6294808;28;20463;-69
2022/12/19 09:40:32;;;;;;;;;;;;;;;4.21;63.72;96558.06;6295477;28;19920;-70
2022/12/19 09:43:57;;;;;;;;;;;;;;;4.21;63.31;96541.59;6295316;28;19927;-70
2022/12/19 09:47:02;;;;;;;;;;;;;;;3.90;64.08;96563.78;6287167;28;19920;-69
2022/12/19 09:50:12;;;;;;;;;;;;;;;3.73;64.81;96561.06;6295002;28;20079;-71
2022/12/19 09:53:22;;;;;;;;;;;;;;;3.64;65.06;96551.03;6294950;28;19920;-70
2022/12/19 09:56:26;;;;;;;;;;;;;;;3.51;65.51;96556.78;6294431;28;19920;-70
2022/12/19 09:59:47;;;;;;;;;;;;;;;3.35;65.92;96555.72;6297366;28;19925;-72
2022/12/19 10:02:54;;;;;;;;;;;;;;;3.33;66.17;96544.53;6299585;28;19927;-70
2022/12/19 10:06:00;;;;;;;;;;;;;;;3.33;66.42;96547.97;6299684;28;20408;-69
2022/12/19 10:09:07;;;;;;;;;;;;;;;3.28;66.33;96533.47;6297839;28;19921;-69
2022/12/19 10:12:08;;;;;;;;;;;;;;;3.31;66.33;96543.72;6299276;28;19920;-69
2022/12/19 10:15:19;;;;;;;;;;;;;;;3.17;66.77;96531.31;6298836;28;19923;-69
2022/12/19 10:18:23;;;;;;;;;;;;;;;3.11;67.03;96506.44;6299185;28;19942;-70
2022/12/19 10:21:43;;;;;;;;;;;;;;;3.07;67.24;96536.03;6299088;28;19920;-71
2022/12/19 10:24:50;;;;;;;;;;;;;;;3.07;67.53;96519.59;6297819;28;19920;-69
2022/12/19 10:27:56;;;;;;;;;;;;;;;2.96;67.68;96507.03;6299025;28;19978;-69
2022/12/19 10:31:20;;;;;;;;;;;;;;;3.09;67.20;96513.44;6297704;28;19920;-69
2022/12/19 10:34:23;;;;;;;;;;;;;;;2.84;68.19;96520.53;6298270;28;19920;-69
2022/12/19 10:37:38;;;;;;;;;;;;;;;2.90;68.14;96544.50;6299093;28;19920;-69
2022/12/19 10:41:11;;;;;;;;;;;;;;;2.88;67.79;96550.66;6298510;28;19928;-69
2022/12/19 10:44:14;;;;;;;;;;;;;;;2.63;68.77;96530.00;6298578;28;19930;-69
2022/12/19 10:47:16;;;;;;;;;;;;;;;2.48;69.45;96516.69;6298544;28;20011;-70
2022/12/19 10:50:23;;;;;;;;;;;;;;;2.46;70.18;96533.25;6298580;28;19916;-70
2022/12/19 10:53:28;;;;;;;;;;;;;;;2.52;69.75;96539.94;6298370;28;19923;-70
2022/12/19 10:56:30;;;;;;;;;;;;;;;2.55;69.64;96543.31;6298434;28;19920;-68
2022/12/19 10:59:33;;;;;;;;;;;;;;;2.65;68.98;96529.03;6297990;28;19979;-70
2022/12/19 11:02:41;;;;;;;;;;;;;;;2.67;68.55;96537.63;6298248;28;19920;-69
2022/12/19 11:05:51;;;;;;;;;;;;;;;2.93;68.11;96546.16;6298262;28;19927;-70
2022/12/19 11:09:14;;;;;;;;;;;;;;;2.90;67.88;96539.31;6297996;28;19920;-70
2022/12/19 11:12:24;;;;;;;;;;;;;;;2.95;67.31;96510.56;6298047;28;20373;-70
2022/12/19 11:15:29;;;;;;;;;;;;;;;3.02;66.93;96543.16;6297886;28;19924;-70
2022/12/19 11:18:36;;;;;;;;;;;;;;;3.18;66.38;96529.56;6297380;28;19920;-69
2022/12/19 11:21:39;;;;;;;;;;;;;;;3.15;66.29;96522.75;6297668;28;20460;-69
2022/12/19 11:24:45;;;;;;;;;;;;;;;3.13;66.26;96514.97;6297690;28;19982;-69
2022/12/19 11:27:49;;;;;;;;;;;;;;;3.05;66.28;96517.03;6297696;28;20363;-69
2022/12/19 11:30:55;;;;;;;;;;;;;;;3.12;66.04;96528.91;6297232;28;19927;-69
2022/12/19 11:34:03;;;;;;;;;;;;;;;2.99;66.31;96530.28;6297249;28;20010;-69
2022/12/19 11:37:08;;;;;;;;;;;;;;;2.89;66.71;96531.59;6297151;28;19920;-69
2022/12/19 11:40:14;;;;;;;;;;;;;;;2.74;67.24;96539.97;6296992;28;19943;-70
2022/12/19 11:43:16;;;;;;;;;;;;;;;2.66;67.33;96516.88;6296807;28;20301;-69
2022/12/19 11:46:28;;;;;;;;;;;;;;;2.56;67.63;96516.41;6297236;28;19920;-69
2022/12/19 11:49:47;;;;;;;;;;;;;;;2.53;67.90;96508.75;6297108;28;20014;-69
2022/12/19 11:53:14;;;;;;;;;;;;;;;2.53;67.92;96507.91;6295815;28;19924;-69
2022/12/19 11:56:20;;;;;;;;;;;;;;;2.58;67.66;96522.41;6296331;28;19920;-69
2022/12/19 11:59:30;;;;;;;;;;;;;;;2.35;68.05;96504.25;6296970;28;19920;-68
2022/12/19 12:02:42;;;;;;;;;;;;;;;2.45;67.65;96521.16;6296645;28;19920;-70
2022/12/19 12:05:47;;;;;;;;;;;;;;;2.06;68.77;96513.13;6296723;28;19920;-69
2022/12/19 12:08:57;;;;;;;;;;;;;;;2.03;69.00;96511.50;6296536;28;19924;-70
2022/12/19 12:12:21;;;;;;;;;;;;;;;1.99;69.04;96517.72;6296491;28;19932;-69
2022/12/19 12:15:40;;;;;;;;;;;;;;;2.00;68.59;96525.41;6285736;28;19934;-70
2022/12/19 12:18:53;;;;;;;;;;;;;;;1.97;68.71;96511.72;6296198;28;19920;-70
2022/12/19 12:22:05;;;;;;;;;;;;;;;1.87;68.78;96502.56;6295604;28;20408;-70
2022/12/19 12:25:15;;;;;;;;;;;;;;;1.74;68.88;96503.03;6296204;28;20006;-69
2022/12/19 12:28:39;;;;;;;;;;;;;;;1.76;68.81;96510.75;6296203;28;19930;-68
2022/12/19 12:32:01;;;;;;;;;;;;;;;1.71;68.68;96512.66;6268420;28;19920;-68
2022/12/19 12:35:13;;;;;;;;;;;;;;;1.71;68.24;96500.53;6295432;28;19920;-69
2022/12/19 12:38:43;;;;;;;;;;;;;;;1.89;66.80;96512.00;6296412;28;19920;-69
2022/12/19 12:42:02;;;;;;;;;;;;;;;1.79;66.91;96514.09;6271701;28;19920;-69
2022/12/19 12:45:37;;;;;;;;;;;;;;;1.74;66.92;96499.59;6295565;28;19924;-71
2022/12/19 12:48:46;;;;;;;;;;;;;;;1.79;66.44;96497.69;6294117;28;19946;-70
2022/12/19 12:51:47;;;;;;;;;;;;;;;1.82;66.06;96509.69;6295198;28;19920;-69
2022/12/19 12:54:49;;;;;;;;;;;;;;;1.71;66.04;96513.50;6295632;28;19920;-69
2022/12/19 12:57:50;;;;;;;;;;;;;;;1.82;65.67;96500.16;6295978;28;19920;-70
2022/12/19 13:01:13;;;;;;;;;;;;;;;1.59;66.77;96507.94;6295637;28;20297;-70
2022/12/19 13:04:14;;;;;;;;;;;;;;;1.43;66.89;96513.63;6295101;28;19920;-69
2022/12/19 13:07:23;;;;;;;;;;;;;;;1.60;65.93;96515.63;6295617;28;20332;-69
2022/12/19 13:10:30;;;;;;;;;;;;;;;1.55;65.83;96522.72;6294806;28;19917;-69
2022/12/19 13:13:52;;;;;;;;;;;;;;;1.40;66.53;96510.31;6295260;28;19920;-69
2022/12/19 13:16:57;;;;;;;;;;;;;;;1.57;65.85;96520.94;6295785;28;20018;-70
2022/12/19 13:20:03;;;;;;;;;;;;;;;1.64;65.47;96522.38;6295465;28;20007;-70
2022/12/19 13:23:32;;;;;;;;;;;;;;;1.48;65.73;96523.84;6295893;28;19927;-69
2022/12/19 13:26:45;;;;;;;;;;;;;;;1.65;64.55;96529.28;6295190;28;20293;-68
2022/12/19 13:29:52;;;;;;;;;;;;;;;1.49;64.65;96502.19;6295485;28;19921;-69
2022/12/19 13:32:59;;;;;;;;;;;;;;;1.59;63.64;96508.75;6297196;28;19920;-68
2022/12/19 13:36:03;;;;;;;;;;;;;;;1.47;63.34;96476.34;6299502;28;19943;-69
2022/12/19 13:39:21;;;;;;;;;;;;;;;1.31;63.22;96488.97;6300360;28;19920;-68
2022/12/19 13:45:48;;;;;;;;;;;;;;;1.06;64.27;96481.19;6300124;28;19966;-70
2022/12/19 13:48:55;;;;;;;;;;;;;;;0.96;64.63;96486.72;6300032;28;19928;-68
2022/12/19 13:52:02;;;;;;;;;;;;;;;1.09;65.02;96498.38;6300031;28;19920;-68
2022/12/19 13:55:12;;;;;;;;;;;;;;;0.99;65.12;96495.25;6299471;28;20294;-69
2022/12/19 13:58:22;;;;;;;;;;;;;;;0.90;65.82;96495.53;6298864;28;20329;-68
2022/12/19 14:01:23;;;;;;;;;;;;;;;1.00;64.95;96493.50;6298601;28;20381;-69
2022/12/19 14:04:30;;;;;;;;;;;;;;;1.00;65.41;96486.56;6299082;28;19921;-69
2022/12/19 14:07:42;;;;;;;;;;;;;;;0.75;65.79;96499.47;6298985;28;20058;-69
2022/12/19 14:10:45;;;;;;;;;;;;;;;0.71;66.12;96487.53;6299586;28;19927;-69
2022/12/19 14:17:16;;;;;;;;;;;;;;;0.86;65.68;96470.63;6299485;28;19920;-69
2022/12/19 14:20:26;;;;;;;;;;;;;;;0.72;65.64;96489.22;6298827;28;19920;-68
2022/12/19 14:23:27;;;;;;;;;;;;;;;0.77;66.16;96489.91;6299139;28;20378;-69
2022/12/19 14:26:31;;;;;;;;;;;;;;;0.62;65.97;96492.97;6299454;28;19927;-70
2022/12/19 14:29:42;;;;;;;;;;;;;;;0.54;66.34;96502.72;6299155;28;20374;-69
2022/12/19 14:32:48;;;;;;;;;;;;;;;0.64;66.33;96502.41;6298802;28;20017;-69
2022/12/19 14:35:54;;;;;;;;;;;;;;;0.87;65.31;96500.81;6298912;28;19920;-69
2022/12/19 14:38:56;;;;;;;;;;;;;;;0.95;64.20;96495.41;6298252;28;20404;-69
2022/12/19 14:45:33;;;;;;;;;;;;;;;0.80;64.71;96497.59;6297884;28;19997;-69
2022/12/19 14:48:51;;;;;;;;;;;;;;;0.59;65.25;96498.25;6298682;28;19920;-69
2022/12/19 14:51:53;;;;;;;;;;;;;;;0.72;65.36;96502.16;6296987;28;19920;-70
2022/12/19 14:55:13;;;;;;;;;;;;;;;0.99;64.24;96504.75;6298269;28;20383;-69
2022/12/19 14:58:21;;;;;;;;;;;;;;;0.81;64.64;96522.56;6298306;28;19952;-70
2022/12/19 15:01:30;;;;;;;;;;;;;;;1.04;64.33;96511.47;6298115;28;19920;-69
2022/12/19 15:04:35;;;;;;;;;;;;;;;0.87;64.39;96499.06;6298081;28;19920;-69
2022/12/19 15:07:41;;;;;;;;;;;;;;;1.05;63.52;96502.81;6298239;28;19920;-69
2022/12/19 15:10:42;;;;;;;;;;;;;;;1.00;64.04;96499.53;6297323;28;19920;-69
2022/12/19 15:13:49;;;;;;;;;;;;;;;1.07;64.16;96487.19;6297555;28;19927;-69
2022/12/19 15:17:02;;;;;;;;;;;;;;;1.09;63.82;96496.63;6297952;28;19920;-69
2022/12/19 15:20:09;;;;;;;;;;;;;;;0.97;64.57;96485.84;6298074;28;19920;-70
2022/12/19 15:23:15;;;;;;;;;;;;;;;0.93;64.67;96486.81;6297614;28;19920;-69
2022/12/19 15:26:25;;;;;;;;;;;;;;;0.95;64.58;96487.63;6297882;28;19920;-68
2022/12/19 15:29:29;;;;;;;;;;;;;;;1.03;64.05;96493.41;6297829;28;19920;-69
2022/12/19 15:32:30;;;;;;;;;;;;;;;1.01;64.81;96487.41;6297607;28;20313;-69
2022/12/19 15:35:36;;;;;;;;;;;;;;;0.97;65.12;96483.25;6297000;28;19921;-69
2022/12/19 15:38:40;;;;;;;;;;;;;;;0.76;65.21;96480.44;6297366;28;19921;-69
2022/12/19 15:41:48;;;;;;;;;;;;;;;0.85;64.79;96485.34;6297336;28;19920;-69
2022/12/19 15:44:51;;;;;;;;;;;;;;;0.87;65.14;96499.06;6295740;28;19927;-70
2022/12/19 15:47:54;;;;;;;;;;;;;;;0.74;65.25;96492.59;6296407;28;19927;-69
2022/12/19 15:50:55;;;;;;;;;;;;;;;0.78;65.58;96498.53;6296423;28;20023;-70
2022/12/19 15:53:56;;;;;;;;;;;;;;;0.74;65.72;96497.78;6296319;28;19927;-70
2022/12/19 15:56:58;;;;;;;;;;;;;;;0.75;65.37;96498.63;6296185;28;20385;-70
2022/12/19 16:00:01;;;;;;;;;;;;;;;0.88;65.14;96489.56;6296735;28;19920;-70
2022/12/19 16:03:10;;;;;;;;;;;;;;;0.92;65.24;96490.31;6296572;28;19920;-69
2022/12/19 16:06:14;;;;;;;;;;;;;;;0.83;65.66;96494.91;6296753;28;20305;-70
2022/12/19 16:09:24;;;;;;;;;;;;;;;0.74;65.49;96482.25;6296613;28;19920;-69
2022/12/19 16:12:35;;;;;;;;;;;;;;;0.56;65.98;96488.00;6295770;28;20247;-70
2022/12/19 16:15:38;;;;;;;;;;;;;;;0.70;66.23;96480.63;6296612;28;19920;-70
2022/12/19 16:18:41;;;;;;;;;;;;;;;0.70;65.89;96480.63;6296409;28;20382;-70
2022/12/19 16:21:44;;;;;;;;;;;;;;;0.77;65.73;96482.16;6296447;28;19927;-69
2022/12/19 16:24:48;;;;;;;;;;;;;;;0.84;66.19;96481.03;6295442;28;19924;-70
2022/12/19 16:27:55;;;;;;;;;;;;;;;0.93;65.54;96479.03;6296492;28;19920;-71
2022/12/19 16:30:59;;;;;;;;;;;;;;;0.69;66.01;96473.78;6296302;28;20374;-70
2022/12/19 16:34:11;;;;;;;;;;;;;;;0.55;66.71;96465.59;6296255;28;19927;-70